Time;durP1;ratioP1;P1;durP2;ratioP2;P2;SDS_P1;SDS_P2;PMS_P1;PMS_P2;Temp;Humidity;BMP_temperature;BMP_pressure;BME280_temperature;BME280_humidity;BME280_pressure;Samples;Min_cycle;Max_cycle;Signal;HPM_P1;HPM_P2
2023/07/01 00:01:22;;;;;;;6.95;5.40;;;;;;;17.76;72.34;94573.28;5115300;28;20199;-67
2023/07/01 00:03:50;;;;;;;5.88;5.32;;;;;;;17.84;72.27;94574.03;5115013;28;20200;-67
2023/07/01 00:06:19;;;;;;;7.28;5.88;;;;;;;17.82;71.82;94570.06;5115800;28;20184;-67
2023/07/01 00:08:47;;;;;;;7.05;6.32;;;;;;;17.70;71.14;94565.75;5114610;28;20249;-67
2023/07/01 00:11:15;;;;;;;7.03;6.32;;;;;;;17.61;71.10;94573.78;5115718;28;20184;-67
2023/07/01 00:13:41;;;;;;;7.18;6.43;;;;;;;17.61;71.62;94565.41;5114750;28;20198;-67
2023/07/01 00:16:13;;;;;;;6.15;5.55;;;;;;;17.62;71.50;94569.81;5115486;28;20214;-67
2023/07/01 00:18:43;;;;;;;8.00;5.65;;;;;;;17.61;71.67;94566.22;5115614;28;20257;-67
2023/07/01 00:21:11;;;;;;;8.82;6.47;;;;;;;17.62;72.06;94559.44;5114989;28;20535;-67
2023/07/01 00:23:39;;;;;;;6.13;5.63;;;;;;;17.64;72.78;94565.38;5114815;28;20291;-67
2023/07/01 00:26:07;;;;;;;7.75;6.22;;;;;;;17.55;72.57;94565.06;5115650;28;20187;-67
2023/07/01 00:28:35;;;;;;;6.80;6.15;;;;;;;17.42;71.66;94556.38;5118617;28;20211;-67
2023/07/01 00:31:04;;;;;;;6.53;5.80;;;;;;;17.37;72.42;94554.03;5119928;28;20192;-67
2023/07/01 00:33:35;;;;;;;7.88;6.00;;;;;;;17.39;72.03;94565.56;5119497;28;20195;-67
2023/07/01 00:36:03;;;;;;;6.93;6.18;;;;;;;17.36;72.51;94563.63;5118525;28;20235;-67
2023/07/01 00:38:31;;;;;;;6.22;5.60;;;;;;;17.40;72.60;94567.16;5118946;28;20192;-67
2023/07/01 00:40:59;;;;;;;6.72;6.07;;;;;;;17.38;72.26;94560.41;5119029;28;20199;-67
2023/07/01 00:43:27;;;;;;;6.47;5.88;;;;;;;17.35;72.80;94556.44;5118792;28;20200;-67
2023/07/01 00:45:55;;;;;;;6.65;5.75;;;;;;;17.37;72.74;94554.03;5118409;28;20231;-67
2023/07/01 00:48:25;;;;;;;6.45;5.85;;;;;;;17.33;73.18;94548.50;5119495;28;20214;-67
2023/07/01 00:50:53;;;;;;;7.05;6.38;;;;;;;17.33;73.69;94548.50;5118646;28;20603;-67
2023/07/01 00:53:21;;;;;;;6.55;6.05;;;;;;;17.35;73.32;94548.06;5119229;28;20223;-67
2023/07/01 00:55:48;;;;;;;7.18;6.20;;;;;;;17.37;74.18;94551.25;5119180;28;20195;-67
2023/07/01 00:58:16;;;;;;;6.80;6.20;;;;;;;17.40;74.11;94555.22;5119378;28;20196;-67
2023/07/01 01:00:44;;;;;;;6.25;5.75;;;;;;;17.36;74.10;94557.22;5119147;28;20200;-67
2023/07/01 01:03:21;;;;;;;7.05;6.32;;;;;;;17.37;74.70;94556.03;5118672;28;20203;-67
2023/07/01 01:05:51;;;;;;;6.35;5.85;;;;;;;17.31;74.52;94559.25;5119304;28;20180;-66
2023/07/01 01:08:25;;;;;;;6.82;6.15;;;;;;;17.32;74.69;94548.91;5119313;28;20212;-67
2023/07/01 01:10:55;;;;;;;7.35;5.93;;;;;;;17.33;74.30;94559.66;5119109;28;20188;-67
2023/07/01 01:13:25;;;;;;;7.45;6.40;;;;;;;17.32;74.13;94560.06;5118190;28;20212;-67
2023/07/01 01:15:53;;;;;;;8.10;7.05;;;;;;;17.24;74.40;94553.72;5117764;28;20256;-67
2023/07/01 01:18:22;;;;;;;8.52;7.25;;;;;;;17.21;74.54;94549.00;5118627;28;20624;-67
2023/07/01 01:20:51;;;;;;;7.53;6.70;;;;;;;17.19;75.08;94545.00;5118980;28;20207;-67
2023/07/01 01:23:25;;;;;;;6.82;6.22;;;;;;;17.15;74.76;94541.47;5118267;28;20219;-67
2023/07/01 01:25:59;;;;;;;6.68;6.15;;;;;;;17.08;74.39;94542.28;5118134;28;20214;-67
2023/07/01 01:28:30;;;;;;;7.40;6.55;;;;;;;17.07;74.49;94541.50;5118700;28;20195;-67
2023/07/01 01:30:59;;;;;;;6.32;5.80;;;;;;;17.09;73.55;94550.22;5118177;28;20278;-67
2023/07/01 01:33:26;;;;;;;6.80;6.30;;;;;;;17.12;74.45;94547.84;5118105;28;20220;-67
2023/07/01 01:36:01;;;;;;;7.72;6.45;;;;;;;17.15;74.24;94544.25;5118341;28;20188;-67
2023/07/01 01:38:34;;;;;;;6.80;6.20;;;;;;;17.18;73.92;94544.22;5116862;28;20202;-67
2023/07/01 01:41:06;;;;;;;6.70;6.18;;;;;;;17.20;74.11;94533.44;5118536;28;20195;-67
2023/07/01 01:43:42;;;;;;;6.80;6.28;;;;;;;17.22;74.08;94535.84;5118341;28;20191;-67
2023/07/01 01:46:11;;;;;;;5.93;5.53;;;;;;;17.24;73.90;94536.22;5118008;28;20243;-67
2023/07/01 01:48:39;;;;;;;6.57;6.07;;;;;;;17.25;73.86;94530.25;5117814;28;20192;-67
2023/07/01 01:51:08;;;;;;;6.47;5.88;;;;;;;17.26;73.60;94540.19;5118342;28;20199;-67
2023/07/01 01:53:38;;;;;;;6.40;5.90;;;;;;;17.25;73.75;94538.59;5117615;28;20628;-67
2023/07/01 01:56:07;;;;;;;6.20;5.75;;;;;;;17.18;74.69;94540.66;5116934;28;20276;-67
2023/07/01 01:58:34;;;;;;;6.68;6.07;;;;;;;17.11;74.74;94540.69;5116893;28;20623;-67
2023/07/01 02:01:04;;;;;;;6.28;5.68;;;;;;;17.04;74.50;94533.16;5117569;28;20603;-67
2023/07/01 02:03:34;;;;;;;6.63;6.03;;;;;;;16.97;75.12;94542.34;5117769;28;20231;-67
2023/07/01 02:06:02;;;;;;;6.28;5.78;;;;;;;16.98;74.66;94529.22;5117152;28;20287;-67
2023/07/01 02:08:30;;;;;;;6.00;5.50;;;;;;;16.97;74.96;94541.56;5117934;28;20198;-67
2023/07/01 02:10:58;;;;;;;7.40;5.72;;;;;;;16.94;74.30;94537.59;5117957;28;20195;-67
2023/07/01 02:13:26;;;;;;;6.47;5.88;;;;;;;16.94;74.41;94537.59;5117822;28;20311;-67
2023/07/01 02:15:54;;;;;;;8.00;6.43;;;;;;;16.96;74.30;94537.22;5117187;28;20240;-67
2023/07/01 02:18:24;;;;;;;6.38;5.88;;;;;;;16.94;74.21;94543.16;5117579;28;20209;-67
2023/07/01 02:20:50;;;;;;;6.57;5.97;;;;;;;16.93;73.81;94538.81;5116787;28;20260;-67
2023/07/01 02:23:19;;;;;;;6.85;5.80;;;;;;;16.95;73.42;94538.38;5117709;28;20489;-67
2023/07/01 02:25:47;;;;;;;6.38;5.78;;;;;;;16.96;73.49;94532.44;5116527;28;20204;-67
2023/07/01 02:28:15;;;;;;;6.30;5.80;;;;;;;16.96;73.18;94537.22;5116740;28;20192;-67
2023/07/01 02:30:42;;;;;;;7.82;6.38;;;;;;;16.99;73.49;94531.63;5117560;28;20211;-67
2023/07/01 02:33:10;;;;;;;6.28;5.68;;;;;;;16.92;73.68;94540.00;5117405;28;20210;-67
2023/07/01 02:35:40;;;;;;;5.97;5.47;;;;;;;16.84;73.52;94533.66;5116333;28;20195;-67
2023/07/01 02:38:08;;;;;;;6.60;6.00;;;;;;;16.81;74.14;94542.03;5117212;28;20688;-66
2023/07/01 02:40:36;;;;;;;6.35;5.80;;;;;;;16.78;74.72;94545.66;5116283;28;20207;-67
2023/07/01 02:43:04;;;;;;;6.10;5.50;;;;;;;16.75;74.78;94552.81;5116439;28;20188;-67
2023/07/01 02:45:35;;;;;;;6.30;5.68;;;;;;;16.77;74.61;94552.41;5116273;28;20206;-67
2023/07/01 02:48:03;;;;;;;6.50;5.85;;;;;;;16.75;73.54;94560.38;5117094;28;20184;-67
2023/07/01 02:50:31;;;;;;;6.10;5.60;;;;;;;16.70;73.74;94555.19;5115352;28;20196;-67
2023/07/01 02:53:01;;;;;;;5.70;5.25;;;;;;;16.66;74.06;94558.00;5116204;28;20208;-67
2023/07/01 02:55:29;;;;;;;6.10;5.50;;;;;;;16.66;74.58;94554.41;5117265;28;20207;-67
2023/07/01 02:57:58;;;;;;;6.35;5.70;;;;;;;16.61;74.89;94553.63;5116051;28;20231;-67
2023/07/01 03:00:26;;;;;;;7.05;5.63;;;;;;;16.56;74.31;94564.41;5116977;28;20184;-67
2023/07/01 03:02:54;;;;;;;7.72;5.43;;;;;;;16.44;75.03;94565.63;5116962;28;20245;-67
2023/07/01 03:05:23;;;;;;;6.55;5.95;;;;;;;16.37;75.13;94569.22;5116039;28;20199;-67
2023/07/01 03:07:52;;;;;;;8.20;5.68;;;;;;;16.35;75.02;94568.06;5115928;28;20198;-67
2023/07/01 03:10:21;;;;;;;6.78;5.60;;;;;;;16.24;74.78;94564.53;5115862;28;20230;-67
2023/07/01 03:12:49;;;;;;;6.80;6.10;;;;;;;16.17;75.45;94561.75;5116247;28;20207;-67
2023/07/01 03:15:17;;;;;;;6.40;5.80;;;;;;;16.18;75.90;94554.97;5115837;28;20204;-66
2023/07/01 03:17:47;;;;;;;5.85;5.45;;;;;;;16.18;76.08;94561.34;5116732;28;20206;-66
2023/07/01 03:20:22;;;;;;;6.30;5.80;;;;;;;16.17;75.30;94559.75;5116551;28;20248;-66
2023/07/01 03:22:50;;;;;;;6.07;5.68;;;;;;;16.17;75.37;94564.53;5116388;28;20187;-67
2023/07/01 03:25:19;;;;;;;6.35;5.75;;;;;;;16.24;76.14;94561.72;5115937;28;20607;-66
2023/07/01 03:27:48;;;;;;;6.22;5.72;;;;;;;16.30;76.26;94566.50;5116527;28;20188;-66
2023/07/01 03:30:17;;;;;;;6.75;6.03;;;;;;;16.30;76.12;94565.66;5115454;28;20196;-66
2023/07/01 03:32:47;;;;;;;6.63;6.13;;;;;;;16.25;75.77;94554.97;5115882;28;20215;-66
2023/07/01 03:35:16;;;;;;;7.13;6.50;;;;;;;16.24;75.80;94558.94;5116421;28;20195;-66
2023/07/01 03:37:45;;;;;;;7.97;6.40;;;;;;;16.29;75.78;94559.31;5115946;28;20214;-67
2023/07/01 03:40:13;;;;;;;6.57;6.07;;;;;;;16.37;75.73;94566.44;5115913;28;20548;-67
2023/07/01 03:42:40;;;;;;;7.22;6.53;;;;;;;16.42;75.46;94567.25;5115605;28;20252;-67
2023/07/01 03:45:12;;;;;;;7.28;6.57;;;;;;;16.44;75.88;94565.63;5098023;28;20264;-67
2023/07/01 03:47:42;;;;;;;6.72;6.22;;;;;;;16.46;76.23;94562.47;5114968;28;20236;-67
2023/07/01 03:50:10;;;;;;;7.32;6.63;;;;;;;16.46;76.34;94559.69;5115942;28;20192;-67
2023/07/01 03:52:40;;;;;;;6.35;5.85;;;;;;;16.49;76.39;94570.81;5115559;28;20220;-67
2023/07/01 03:55:11;;;;;;;6.72;6.22;;;;;;;16.55;76.42;94557.25;5116315;28;20188;-67
2023/07/01 03:57:39;;;;;;;6.60;6.10;;;;;;;16.56;76.39;94570.78;5115110;28;20623;-67
2023/07/01 04:00:10;;;;;;;6.97;6.47;;;;;;;16.55;75.58;94565.59;5115007;28;20195;-67
2023/07/01 04:02:44;;;;;;;7.07;6.35;;;;;;;16.56;75.68;94558.84;5115830;28;20270;-67
2023/07/01 04:05:12;;;;;;;7.78;7.07;;;;;;;16.59;75.56;94560.81;5115570;28;20661;-67
2023/07/01 04:07:40;;;;;;;6.50;5.88;;;;;;;16.61;75.84;94564.00;5115656;28;20611;-67
2023/07/01 04:10:10;;;;;;;7.47;6.72;;;;;;;16.64;76.65;94563.19;5115715;28;20244;-67
2023/07/01 04:12:41;;;;;;;7.78;6.63;;;;;;;16.63;75.99;94564.38;5114773;28;20232;-67
2023/07/01 04:15:10;;;;;;;6.95;6.45;;;;;;;16.66;75.79;94565.56;5115533;28;20512;-66
2023/07/01 04:17:41;;;;;;;7.57;6.82;;;;;;;16.63;75.60;94564.38;5114535;28;20627;-67
2023/07/01 04:20:10;;;;;;;6.80;6.30;;;;;;;16.66;76.06;94563.56;5114721;28;20200;-66
2023/07/01 04:22:39;;;;;;;7.07;6.38;;;;;;;16.72;76.44;94561.16;5114588;28;20200;-66
2023/07/01 04:25:08;;;;;;;7.35;6.70;;;;;;;16.76;76.25;94559.97;5115693;28;20203;-64
2023/07/01 04:27:36;;;;;;;6.70;6.10;;;;;;;16.77;75.59;94558.75;5115356;28;20198;-66
2023/07/01 04:30:07;;;;;;;9.75;8.95;;;;;;;16.77;75.51;94560.75;5114606;28;20253;-64
2023/07/01 04:32:35;;;;;;;7.65;7.05;;;;;;;16.82;75.66;94561.13;5114778;28;20206;-64
2023/07/01 04:35:03;;;;;;;8.60;7.07;;;;;;;16.84;75.28;94558.72;5115229;28;20192;-64
2023/07/01 04:37:33;;;;;;;7.70;7.03;;;;;;;16.84;74.85;94553.16;5115606;28;20191;-64
2023/07/01 04:40:01;;;;;;;8.23;6.60;;;;;;;16.86;74.66;94552.78;5115420;28;20207;-64
2023/07/01 04:42:31;;;;;;;7.57;6.78;;;;;;;16.93;75.01;94557.50;5115221;28;20198;-64
2023/07/01 04:44:59;;;;;;;7.95;7.35;;;;;;;16.96;74.97;94565.84;5114686;28;20195;-64
2023/07/01 04:47:27;;;;;;;8.25;7.47;;;;;;;16.98;74.66;94562.66;5114290;28;20231;-64
2023/07/01 04:49:55;;;;;;;7.80;7.10;;;;;;;16.99;74.99;94559.47;5115316;28;20238;-64
2023/07/01 04:52:24;;;;;;;7.65;6.90;;;;;;;17.02;75.04;94553.06;5114094;28;20196;-64
2023/07/01 04:54:54;;;;;;;7.80;7.10;;;;;;;17.08;75.33;94561.78;5114537;28;20211;-64
2023/07/01 04:57:22;;;;;;;7.80;7.20;;;;;;;17.11;76.04;94566.56;5114404;28;20633;-64
2023/07/01 04:59:50;;;;;;;7.80;7.20;;;;;;;17.16;75.10;94570.91;5115065;28;20556;-64
2023/07/01 05:02:20;;;;;;;8.18;7.32;;;;;;;17.17;74.52;94573.28;5115292;28;20191;-64
2023/07/01 05:04:48;;;;;;;7.68;7.07;;;;;;;17.23;74.53;94576.44;5115435;28;20263;-64
2023/07/01 05:07:16;;;;;;;8.15;7.45;;;;;;;17.27;73.91;94578.00;5114379;28;20203;-64
2023/07/01 05:09:44;;;;;;;8.75;8.00;;;;;;;17.31;74.07;94575.19;5115119;28;20230;-64
2023/07/01 05:12:14;;;;;;;8.07;7.10;;;;;;;17.33;74.89;94573.59;5114282;28;20256;-64
2023/07/01 05:14:42;;;;;;;8.55;7.82;;;;;;;17.36;75.10;94583.13;5118965;28;20258;-64
2023/07/01 05:17:10;;;;;;;9.35;8.35;;;;;;;17.39;74.25;94581.50;5118950;28;20187;-64
2023/07/01 05:19:38;;;;;;;7.95;7.30;;;;;;;17.42;74.64;94586.25;5118667;28;20200;-64
2023/07/01 05:22:07;;;;;;;9.40;8.50;;;;;;;17.43;74.92;94579.47;5118709;28;20596;-64
2023/07/01 05:24:33;;;;;;;9.90;8.90;;;;;;;17.44;74.16;94586.66;5117813;28;20195;-67
2023/07/01 05:27:01;;;;;;;9.10;8.30;;;;;;;17.46;74.05;94582.25;5118863;28;20213;-65
2023/07/01 05:29:30;;;;;;;9.77;8.88;;;;;;;17.49;74.15;94586.22;5118015;28;20207;-65
2023/07/01 05:32:00;;;;;;;10.00;9.10;;;;;;;17.53;73.65;94578.63;5118288;28;20196;-65
2023/07/01 05:34:29;;;;;;;10.00;9.10;;;;;;;17.58;73.91;94580.19;5118410;28;20211;-65
2023/07/01 05:36:59;;;;;;;12.07;9.70;;;;;;;17.62;74.26;94578.16;5118390;28;20637;-65
2023/07/01 05:39:31;;;;;;;10.43;9.50;;;;;;;17.64;74.54;94579.31;5117848;28;20223;-65
2023/07/01 05:41:59;;;;;;;9.90;8.90;;;;;;;17.66;74.73;94582.50;5118106;28;20191;-65
2023/07/01 05:44:27;;;;;;;9.82;9.02;;;;;;;17.71;74.25;94587.63;5118425;28;20237;-65
2023/07/01 05:46:58;;;;;;;9.30;8.50;;;;;;;17.76;74.39;94581.66;5117224;28;20239;-65
2023/07/01 05:49:26;;;;;;;9.23;8.32;;;;;;;17.80;74.61;94585.22;5118021;28;20184;-65
2023/07/01 05:51:54;;;;;;;9.50;8.60;;;;;;;17.84;74.24;94576.81;5117318;28;20603;-65
2023/07/01 05:54:22;;;;;;;9.48;8.68;;;;;;;17.93;74.40;94584.69;5118037;28;20215;-65
2023/07/01 05:56:50;;;;;;;8.98;8.27;;;;;;;17.97;73.49;94577.09;5116834;28;20233;-66
2023/07/01 05:59:16;;;;;;;9.50;8.60;;;;;;;18.03;73.57;94594.97;5116751;28;20211;-65
2023/07/01 06:01:45;;;;;;;10.30;8.60;;;;;;;18.07;73.57;94589.38;5117265;28;20244;-65
2023/07/01 06:04:13;;;;;;;9.75;8.75;;;;;;;18.12;72.31;94597.28;5116826;28;20203;-65
2023/07/01 06:06:40;;;;;;;9.18;8.30;;;;;;;18.17;71.80;94596.84;5117547;28;20257;-65
2023/07/01 06:09:09;;;;;;;9.45;8.73;;;;;;;18.19;71.74;94595.22;5118282;28;20195;-65
2023/07/01 06:11:38;;;;;;;8.30;7.70;;;;;;;18.23;72.13;94593.19;5116760;28;20612;-65
2023/07/01 06:14:06;;;;;;;10.10;9.13;;;;;;;18.25;72.17;94581.59;5116579;28;20215;-65
2023/07/01 06:16:35;;;;;;;10.15;9.20;;;;;;;18.29;71.36;94583.16;5117962;28;20240;-65
2023/07/01 06:19:03;;;;;;;10.52;9.63;;;;;;;18.35;71.47;94583.50;5117007;28;20227;-66
2023/07/01 06:21:35;;;;;;;10.18;9.25;;;;;;;18.41;71.81;94578.25;5117445;28;20245;-65
2023/07/01 06:24:04;;;;;;;10.30;9.40;;;;;;;18.46;71.26;94586.97;5116738;28;20199;-65
2023/07/01 06:26:32;;;;;;;10.75;9.73;;;;;;;18.50;71.45;94575.75;5117276;28;20603;-68
2023/07/01 06:29:00;;;;;;;10.25;9.35;;;;;;;18.56;71.81;94581.69;5116755;28;20196;-66
2023/07/01 06:31:28;;;;;;;10.77;9.77;;;;;;;18.62;71.74;94580.78;5116657;28;20192;-66
2023/07/01 06:33:57;;;;;;;10.18;9.27;;;;;;;18.68;71.69;94583.94;5116514;28;20207;-66
2023/07/01 06:36:25;;;;;;;11.55;10.50;;;;;;;18.73;71.32;94584.28;5117816;28;20237;-67
2023/07/01 06:38:54;;;;;;;11.07;10.10;;;;;;;18.79;71.83;94590.22;5116790;28;20585;-67
2023/07/01 06:41:22;;;;;;;10.80;9.90;;;;;;;18.83;71.43;94581.78;5117348;28;20180;-66
2023/07/01 06:43:51;;;;;;;11.90;10.80;;;;;;;18.88;71.06;94581.31;5117391;28;20184;-66
2023/07/01 06:46:20;;;;;;;10.70;9.75;;;;;;;18.94;71.17;94577.66;5116881;28;20244;-66
2023/07/01 06:48:48;;;;;;;11.05;10.05;;;;;;;18.99;70.72;94571.63;5116914;28;20196;-66
2023/07/01 06:51:16;;;;;;;11.55;10.40;;;;;;;19.06;71.30;94576.28;5116448;28;20204;-66
2023/07/01 06:53:44;;;;;;;11.32;10.02;;;;;;;19.10;70.83;94576.25;5116907;28;20208;-66
2023/07/01 06:56:14;;;;;;;11.93;10.82;;;;;;;19.14;70.80;94580.59;5116294;28;20203;-66
2023/07/01 06:58:42;;;;;;;12.80;11.40;;;;;;;19.18;70.23;94564.56;5117110;28;20187;-66
2023/07/01 07:01:10;;;;;;;10.40;9.50;;;;;;;19.26;69.73;94564.47;5117015;28;20204;-66
2023/07/01 07:03:41;;;;;;;10.48;9.48;;;;;;;19.32;69.98;94560.78;5116686;28;20284;-66
2023/07/01 07:06:09;;;;;;;10.10;9.20;;;;;;;19.36;69.86;94561.50;5115980;28;20268;-66
2023/07/01 07:08:37;;;;;;;11.10;10.18;;;;;;;19.37;70.28;94565.88;5116847;28;20179;-66
2023/07/01 07:11:06;;;;;;;11.63;10.48;;;;;;;19.41;70.11;94560.25;5115980;28;20207;-66
2023/07/01 07:13:39;;;;;;;10.93;9.88;;;;;;;19.44;69.25;94554.59;5116688;28;20248;-66
2023/07/01 07:16:07;;;;;;;12.52;9.52;;;;;;;19.49;69.43;94545.72;5115732;28;20194;-66
2023/07/01 07:18:36;;;;;;;12.05;9.98;;;;;;;19.56;68.53;94549.63;5116177;28;20203;-66
2023/07/01 07:21:04;;;;;;;10.60;9.60;;;;;;;19.63;68.54;94543.94;5116062;28;20199;-66
2023/07/01 07:23:32;;;;;;;10.35;9.45;;;;;;;19.67;67.77;94541.88;5116502;28;20179;-66
2023/07/01 07:26:00;;;;;;;9.32;8.52;;;;;;;19.70;67.35;94543.84;5116432;28;20176;-66
2023/07/01 07:28:27;;;;;;;9.30;8.27;;;;;;;19.75;67.06;94543.34;5116254;28;20195;-67
2023/07/01 07:30:58;;;;;;;9.27;8.48;;;;;;;19.81;66.82;94536.06;5116466;28;20203;-67
2023/07/01 07:33:27;;;;;;;9.90;8.95;;;;;;;19.90;66.91;94547.50;5116491;28;20184;-66
2023/07/01 07:35:55;;;;;;;9.68;8.88;;;;;;;19.95;66.22;94535.81;5116030;28;20207;-67
2023/07/01 07:38:23;;;;;;;9.32;8.40;;;;;;;19.97;65.67;94543.75;5116373;28;20202;-67
2023/07/01 07:40:50;;;;;;;8.93;8.13;;;;;;;19.96;65.94;94534.59;5115411;28;20203;-66
2023/07/01 07:43:20;;;;;;;11.80;8.88;;;;;;;20.01;66.06;94541.72;5115306;28;20202;-66
2023/07/01 07:45:46;;;;;;;9.57;8.63;;;;;;;20.08;65.75;94536.00;5115824;28;20188;-66
2023/07/01 07:48:15;;;;;;;9.65;8.75;;;;;;;20.14;65.63;94533.47;5115923;28;20586;-66
2023/07/01 07:50:41;;;;;;;9.27;8.43;;;;;;;20.18;65.83;94523.78;5116227;28;20195;-66
2023/07/01 07:53:09;;;;;;;8.75;8.05;;;;;;;20.27;64.97;94525.25;5115233;28;20204;-66
2023/07/01 07:55:37;;;;;;;9.52;8.63;;;;;;;20.31;64.99;94532.38;5114998;28;20215;-66
2023/07/01 07:58:07;;;;;;;8.20;7.40;;;;;;;20.34;65.12;94531.50;5115016;28;20188;-66
2023/07/01 08:00:35;;;;;;;8.75;8.00;;;;;;;20.39;65.16;94533.81;5115243;28;20542;-66
2023/07/01 08:03:03;;;;;;;9.65;8.85;;;;;;;20.46;65.33;94527.28;5098203;28;20210;-66
2023/07/01 08:05:33;;;;;;;10.73;9.73;;;;;;;20.53;65.14;94523.59;5116059;28;20175;-66
2023/07/01 08:08:00;;;;;;;11.23;10.02;;;;;;;20.61;65.08;94520.19;5115998;28;20252;-66
2023/07/01 08:10:28;;;;;;;8.68;7.93;;;;;;;20.68;64.46;94510.88;5115883;28;20191;-66
2023/07/01 08:12:56;;;;;;;10.55;9.20;;;;;;;20.78;63.65;94514.69;5116046;28;20202;-66
2023/07/01 08:15:24;;;;;;;9.82;8.57;;;;;;;20.83;62.97;94502.94;5116029;28;20211;-66
2023/07/01 08:17:52;;;;;;;9.77;8.85;;;;;;;20.91;63.38;94496.78;5115566;28;20203;-66
2023/07/01 08:20:22;;;;;;;8.82;8.13;;;;;;;21.06;62.44;94504.84;5115708;28;20187;-66
2023/07/01 08:22:52;;;;;;;9.35;8.45;;;;;;;21.13;62.65;94499.06;5114996;28;20200;-66
2023/07/01 08:25:20;;;;;;;13.10;12.00;;;;;;;21.23;61.43;94500.84;5114972;28;20192;-66
2023/07/01 08:27:48;;;;;;;8.98;8.07;;;;;;;21.30;60.36;94500.69;5115260;28;20608;-66
2023/07/01 08:30:16;;;;;;;8.40;7.65;;;;;;;21.37;61.36;94494.94;5115497;28;20187;-66
2023/07/01 08:32:44;;;;;;;13.82;12.73;;;;;;;21.45;60.94;94495.56;5115331;28;20200;-66
2023/07/01 08:35:13;;;;;;;9.23;8.52;;;;;;;21.59;60.95;94502.84;5115379;28;20657;-66
2023/07/01 08:37:41;;;;;;;8.18;7.47;;;;;;;21.68;61.14;94497.44;5115264;28;20195;-66
2023/07/01 08:40:12;;;;;;;8.80;8.00;;;;;;;21.75;60.58;94502.03;5115114;28;20180;-66
2023/07/01 08:42:43;;;;;;;8.07;7.40;;;;;;;21.88;59.01;94500.13;5115591;28;20219;-66
2023/07/01 08:45:12;;;;;;;7.38;6.85;;;;;;;21.96;59.30;94495.88;5114599;28;20207;-67
2023/07/01 08:47:41;;;;;;;8.35;7.53;;;;;;;;;;5115583;28;20244;-66
2023/07/01 08:50:10;;;;;;;8.10;7.00;;;;;;;22.22;58.63;94490.44;5118704;28;20252;-66
2023/07/01 08:52:40;;;;;;;7.20;6.60;;;;;;;22.27;57.52;94490.69;5119746;28;20203;-66
2023/07/01 08:55:12;;;;;;;7.47;6.78;;;;;;;22.41;58.51;94489.53;5119266;28;20578;-66
2023/07/01 08:57:40;;;;;;;7.63;6.93;;;;;;;22.52;58.99;94477.97;5118836;28;20227;-66
2023/07/01 09:00:12;;;;;;;7.20;6.60;;;;;;;22.63;55.30;94480.50;5119208;28;20199;-67
2023/07/01 09:02:40;;;;;;;7.30;6.63;;;;;;;22.74;56.68;94481.75;5119716;28;20608;-66
2023/07/01 09:05:09;;;;;;;8.13;7.15;;;;;;;22.79;59.16;94480.41;5118825;28;20188;-66
2023/07/01 09:07:37;;;;;;;6.97;6.40;;;;;;;22.91;56.83;94474.00;5119578;28;20183;-66
2023/07/01 09:10:07;;;;;;;7.75;7.03;;;;;;;22.96;55.62;94467.88;5119648;28;20240;-66
2023/07/01 09:12:37;;;;;;;7.68;6.25;;;;;;;23.18;57.78;94467.22;5119348;28;20192;-66
2023/07/01 09:15:08;;;;;;;7.05;6.40;;;;;;;23.35;54.41;94460.25;5119069;28;20220;-66
2023/07/01 09:17:37;;;;;;;7.35;6.68;;;;;;;23.43;55.26;94467.22;5119151;28;20180;-66
2023/07/01 09:20:07;;;;;;;7.22;6.63;;;;;;;23.51;55.29;94456.53;5118079;28;20237;-66
2023/07/01 09:22:35;;;;;;;7.47;6.88;;;;;;;23.58;55.19;94447.06;5118993;28;20196;-66
2023/07/01 09:25:04;;;;;;;7.88;7.10;;;;;;;23.75;56.57;94446.50;5119302;28;20179;-66
2023/07/01 09:27:42;;;;;;;7.88;7.18;;;;;;;23.83;54.86;94440.63;5119057;28;20203;-66
2023/07/01 09:30:35;;;;;;;7.60;6.95;;;;;;;23.92;52.49;94440.69;5118132;28;20196;-66
2023/07/01 09:33:12;;;;;;;7.30;6.65;;;;;;;24.01;54.10;94435.94;5103563;28;20207;-66
2023/07/01 09:35:44;;;;;;;7.43;6.70;;;;;;;24.09;52.66;94442.13;5117813;28;20315;-66
2023/07/01 09:38:13;;;;;;;7.32;6.63;;;;;;;24.19;56.24;94440.19;5119009;28;20183;-66
2023/07/01 09:40:40;;;;;;;7.05;6.45;;;;;;;24.23;53.53;94432.38;5118383;28;20195;-67
2023/07/01 09:43:09;;;;;;;7.50;6.90;;;;;;;24.28;53.02;94420.50;5119025;28;20516;-66
2023/07/01 09:45:37;;;;;;;8.00;7.35;;;;;;;24.35;55.79;94422.28;5118442;28;20190;-66
2023/07/01 09:48:12;;;;;;;10.02;8.23;;;;;;;24.44;52.56;94425.22;5117218;28;20239;-66
2023/07/01 09:50:40;;;;;;;8.77;8.07;;;;;;;24.57;56.99;94414.66;5118457;28;20184;-66
2023/07/01 09:53:20;;;;;;;8.13;7.43;;;;;;;24.73;54.49;94420.09;5118759;28;20199;-66
2023/07/01 09:55:48;;;;;;;7.57;6.97;;;;;;;24.86;50.37;94411.53;5118349;28;20637;-66
2023/07/01 09:58:21;;;;;;;8.90;7.65;;;;;;;24.84;51.91;94405.56;5118158;28;20195;-66
2023/07/01 10:00:49;;;;;;;7.50;6.90;;;;;;;24.87;52.04;94401.81;5118746;28;20184;-66
2023/07/01 10:03:18;;;;;;;7.90;7.20;;;;;;;24.90;52.58;94400.88;5118730;28;20179;-66
2023/07/01 10:05:47;;;;;;;7.82;7.13;;;;;;;25.03;53.66;94400.81;5118431;28;20172;-66
2023/07/01 10:08:16;;;;;;;7.65;7.00;;;;;;;25.18;50.95;94401.84;5117855;28;20208;-66
2023/07/01 10:10:44;;;;;;;8.68;7.82;;;;;;;25.23;51.65;94394.00;5117889;28;20621;-66
2023/07/01 10:13:13;;;;;;;7.75;7.00;;;;;;;25.36;54.22;94392.66;5118300;28;20196;-66
2023/07/01 10:15:42;;;;;;;7.13;6.63;;;;;;;25.37;48.92;94380.09;5118107;28;20214;-66
2023/07/01 10:18:21;;;;;;;7.60;6.90;;;;;;;25.38;49.82;94381.69;5117123;28;20192;-66
2023/07/01 10:20:50;;;;;;;7.43;6.82;;;;;;;25.41;52.89;94380.72;5116991;28;20191;-66
2023/07/01 10:23:19;;;;;;;8.75;7.30;;;;;;;25.52;52.04;94376.69;5118313;28;20272;-66
2023/07/01 10:25:47;;;;;;;8.05;7.43;;;;;;;25.64;50.90;94379.41;5117245;28;20316;-66
2023/07/01 10:28:15;;;;;;;7.43;6.80;;;;;;;25.64;49.90;94373.75;5117910;28;20184;-66
2023/07/01 10:31:19;;;;;;;7.03;6.43;;;;;;;25.70;50.53;94371.84;5117289;28;20219;-68
2023/07/01 10:33:56;;;;;;;7.47;6.82;;;;;;;25.78;50.48;94365.91;5116902;28;20207;-67
2023/07/01 10:36:23;;;;;;;8.00;7.30;;;;;;;25.90;51.63;94367.84;5117467;28;20211;-65
2023/07/01 10:38:53;;;;;;;7.22;6.63;;;;;;;25.90;49.33;94365.03;5116680;28;20199;-67
2023/07/01 10:41:50;;;;;;;8.50;7.60;;;;;;;25.93;45.75;94361.25;5117456;28;20183;-66
2023/07/01 10:44:25;;;;;;;7.50;6.75;;;;;;;25.95;46.48;94361.56;5114534;28;20199;-66
2023/07/01 10:47:15;;;;;;;7.47;6.88;;;;;;;25.88;45.89;94364.69;5116714;28;20541;-65
2023/07/01 10:50:11;;;;;;;7.53;6.88;;;;;;;25.88;46.52;94367.53;5116769;28;20495;-66
2023/07/01 10:53:01;;;;;;;7.93;7.20;;;;;;;25.82;45.76;94366.59;5117357;28;20198;-68
2023/07/01 10:55:43;;;;;;;7.13;6.55;;;;;;;25.75;46.62;94359.19;5117030;28;20203;-66
2023/07/01 10:58:30;;;;;;;7.88;7.18;;;;;;;25.71;47.19;94350.06;5117157;28;20196;-66
2023/07/01 11:00:58;;;;;;;8.02;7.40;;;;;;;25.74;50.32;94349.09;5116612;28;20199;-66
2023/07/01 11:04:02;;;;;;;9.07;7.50;;;;;;;25.88;51.01;94350.56;5116341;28;20591;-66
2023/07/01 11:06:45;;;;;;;8.32;7.60;;;;;;;25.96;51.61;94337.69;5116417;28;20199;-68
2023/07/01 11:09:13;;;;;;;8.13;7.43;;;;;;;25.92;48.87;94345.53;5117284;28;20199;-68
2023/07/01 11:11:41;;;;;;;8.30;7.50;;;;;;;25.79;47.87;94342.88;5115396;28;20290;-68
2023/07/01 11:14:10;;;;;;;8.32;7.63;;;;;;;25.62;48.53;94341.56;5116672;28;20172;-70
2023/07/01 11:16:39;;;;;;;9.20;8.50;;;;;;;25.78;53.53;94344.13;5115954;28;20211;-67
2023/07/01 11:19:08;;;;;;;8.57;7.80;;;;;;;25.74;50.96;94340.63;5117006;28;20203;-66
2023/07/01 11:21:37;;;;;;;8.02;7.22;;;;;;;25.70;49.83;94335.16;5116757;28;20220;-70
2023/07/01 11:24:08;;;;;;;8.73;7.78;;;;;;;25.84;51.29;94330.19;5115855;28;20192;-70
2023/07/01 11:26:38;;;;;;;9.48;7.93;;;;;;;25.96;50.66;94326.41;5116558;28;20188;-75
2023/07/01 11:29:21;;;;;;;7.80;7.20;;;;;;;26.09;50.23;94317.78;5116173;28;20188;-68
2023/07/01 11:32:00;;;;;;;8.80;8.00;;;;;;;26.36;51.80;94322.59;5115634;28;20290;-69
2023/07/01 11:34:28;;;;;;;8.45;7.70;;;;;;;26.49;51.12;94323.22;5116759;28;20190;-68
2023/07/01 11:37:01;;;;;;;9.00;8.15;;;;;;;26.63;52.95;94316.91;5099142;28;20549;-70
2023/07/01 11:39:29;;;;;;;8.20;7.50;;;;;;;26.71;46.83;94320.19;5115570;28;20195;-70
2023/07/01 11:42:01;;;;;;;8.32;7.57;;;;;;;26.73;49.03;94320.50;5115560;28;20216;-69
2023/07/01 11:44:31;;;;;;;7.30;6.60;;;;;;;26.76;44.98;94310.25;5115619;28;20195;-69